createdAt,value
2022-12-15T00:00:34.784Z,1006.49
2022-12-15T00:01:34.709Z,1006.47
2022-12-15T00:02:34.922Z,1006.51
2022-12-15T00:03:35.524Z,1006.49
2022-12-15T00:04:34.692Z,1006.56
2022-12-15T00:05:34.684Z,1006.54
2022-12-15T00:06:34.729Z,1006.5
2022-12-15T00:07:34.681Z,1006.45
2022-12-15T00:08:34.695Z,1006.52
2022-12-15T00:09:34.695Z,1006.52
2022-12-15T00:10:34.698Z,1006.49
2022-12-15T00:11:34.710Z,1006.52
2022-12-15T00:12:34.683Z,1006.5
2022-12-15T00:13:34.951Z,1006.48
2022-12-15T00:14:34.669Z,1006.55
2022-12-15T00:15:34.764Z,1006.47
2022-12-15T00:16:34.725Z,1006.52
2022-12-15T00:17:34.692Z,1006.55
2022-12-15T00:18:34.694Z,1006.48
2022-12-15T00:19:34.701Z,1006.54
2022-12-15T00:20:34.691Z,1006.51
2022-12-15T00:21:34.701Z,1006.51
2022-12-15T00:22:34.688Z,1006.52
2022-12-15T00:23:34.696Z,1006.52
2022-12-15T00:24:34.689Z,1006.52
2022-12-15T00:25:34.693Z,1006.57
2022-12-15T00:26:34.693Z,1006.55
2022-12-15T00:27:34.682Z,1006.5
2022-12-15T00:28:34.689Z,1006.58
2022-12-15T00:29:34.699Z,1006.55
2022-12-15T00:30:34.675Z,1006.55
2022-12-15T00:31:34.779Z,1006.51
2022-12-15T00:32:34.692Z,1006.49
2022-12-15T00:33:34.896Z,1006.49
2022-12-15T00:34:34.691Z,1006.51
2022-12-15T00:35:34.697Z,1006.47
2022-12-15T00:36:34.758Z,1006.48
2022-12-15T00:37:34.682Z,1006.5
2022-12-15T00:38:34.683Z,1006.56
2022-12-15T00:39:34.685Z,1006.51
2022-12-15T00:40:34.703Z,1006.55
2022-12-15T00:41:34.711Z,1006.54
2022-12-15T00:42:34.673Z,1006.6
2022-12-15T00:43:35.383Z,1006.56
2022-12-15T00:44:34.692Z,1006.58
2022-12-15T00:45:34.691Z,1006.6
2022-12-15T00:46:34.770Z,1006.58
2022-12-15T00:47:34.681Z,1006.64
2022-12-15T00:48:34.679Z,1006.62
2022-12-15T00:49:34.674Z,1006.65
2022-12-15T00:50:34.684Z,1006.59
2022-12-15T00:51:34.691Z,1006.59
2022-12-15T00:52:34.670Z,1006.59
2022-12-15T00:53:34.679Z,1006.59
2022-12-15T00:54:34.681Z,1006.63
2022-12-15T00:55:34.686Z,1006.59
2022-12-15T00:56:34.754Z,1006.57
2022-12-15T00:57:34.681Z,1006.59
2022-12-15T00:58:34.672Z,1006.6
2022-12-15T00:59:34.734Z,1006.55
2022-12-15T01:00:34.677Z,1006.55
2022-12-15T01:01:34.804Z,1006.6
2022-12-15T01:02:34.822Z,1006.63
2022-12-15T01:03:35.265Z,1006.64
2022-12-15T01:04:34.674Z,1006.62
2022-12-15T01:05:34.673Z,1006.64
2022-12-15T01:06:34.692Z,1006.63
2022-12-15T01:07:34.682Z,1006.56
2022-12-15T01:08:34.676Z,1006.55
2022-12-15T01:09:34.681Z,1006.55
2022-12-15T01:10:34.671Z,1006.56
2022-12-15T01:11:34.897Z,1006.57
2022-12-15T01:12:34.674Z,1006.57
2022-12-15T01:13:34.680Z,1006.54
2022-12-15T01:14:34.689Z,1006.6
2022-12-15T01:15:34.682Z,1006.65
2022-12-15T01:16:34.739Z,1006.64
2022-12-15T01:17:34.688Z,1006.67
2022-12-15T01:18:34.687Z,1006.69
2022-12-15T01:19:34.693Z,1006.69
2022-12-15T01:20:34.807Z,1006.68
2022-12-15T01:21:34.708Z,1006.67
2022-12-15T01:22:34.692Z,1006.65
2022-12-15T01:23:35.033Z,1006.66
2022-12-15T01:24:34.690Z,1006.68
2022-12-15T01:25:34.684Z,1006.66
2022-12-15T01:26:34.707Z,1006.67
2022-12-15T01:27:34.687Z,1006.7
2022-12-15T01:28:34.706Z,1006.71
2022-12-15T01:29:34.690Z,1006.74
2022-12-15T01:30:34.671Z,1006.71
2022-12-15T01:31:34.767Z,1006.75
2022-12-15T01:32:34.700Z,1006.78
2022-12-15T01:33:34.686Z,1006.81
2022-12-15T01:34:34.676Z,1006.8
2022-12-15T01:35:34.687Z,1006.87
2022-12-15T01:36:34.804Z,1006.83
2022-12-15T01:37:34.681Z,1006.81
2022-12-15T01:38:34.685Z,1006.9
2022-12-15T01:39:34.691Z,1006.9
2022-12-15T01:40:34.691Z,1006.94
2022-12-15T01:41:34.705Z,1006.96
2022-12-15T01:42:34.685Z,1006.97
2022-12-15T01:43:35.210Z,1007.02
2022-12-15T01:44:34.689Z,1007.02
2022-12-15T01:45:34.697Z,1007.04
2022-12-15T01:46:34.747Z,1007.06
2022-12-15T01:47:34.695Z,1007.02
2022-12-15T01:48:34.694Z,1007.07
2022-12-15T01:49:34.677Z,1007.07
2022-12-15T01:50:34.695Z,1007.06
2022-12-15T01:51:34.726Z,1007.05
2022-12-15T01:52:34.682Z,1007.1
2022-12-15T01:53:34.686Z,1007.08
2022-12-15T01:54:34.700Z,1007.05
2022-12-15T01:55:34.693Z,1007.1
2022-12-15T01:56:37.699Z,1007.08
2022-12-15T01:57:34.701Z,1007.06
2022-12-15T01:58:34.680Z,1007.09
2022-12-15T01:59:34.675Z,1007.09
2022-12-15T02:00:34.743Z,1007.12
2022-12-15T02:01:34.884Z,1007.11
2022-12-15T02:02:39.758Z,1007.08
2022-12-15T02:03:35.283Z,1007.16
2022-12-15T02:04:34.670Z,1007.15
2022-12-15T02:05:34.670Z,1007.2
2022-12-15T02:06:34.699Z,1007.21
2022-12-15T02:07:34.676Z,1007.17
2022-12-15T02:08:34.680Z,1007.24
2022-12-15T02:09:34.672Z,1007.24
2022-12-15T02:10:34.687Z,1007.22
2022-12-15T02:11:34.738Z,1007.25
2022-12-15T02:12:34.688Z,1007.26
2022-12-15T02:13:34.775Z,1007.21
2022-12-15T02:14:34.721Z,1007.19
2022-12-15T02:15:34.678Z,1007.16
2022-12-15T02:16:34.749Z,1007.2
2022-12-15T02:17:34.675Z,1007.16
2022-12-15T02:18:34.677Z,1007.16
2022-12-15T02:19:34.672Z,1007.19
2022-12-15T02:20:34.680Z,1007.18
2022-12-15T02:21:34.685Z,1007.2
2022-12-15T02:22:34.677Z,1007.19
2022-12-15T02:23:35.068Z,1007.2
2022-12-15T02:24:34.681Z,1007.2
2022-12-15T02:25:34.691Z,1007.2
2022-12-15T02:26:34.700Z,1007.28
2022-12-15T02:27:34.694Z,1007.27
2022-12-15T02:28:34.694Z,1007.29
2022-12-15T02:29:34.688Z,1007.28
2022-12-15T02:30:34.679Z,1007.32
2022-12-15T02:31:34.760Z,1007.29
2022-12-15T02:33:35.002Z,1007.35
2022-12-15T02:34:34.688Z,1007.34
2022-12-15T02:35:34.699Z,1007.35
2022-12-15T02:36:34.709Z,1007.3
2022-12-15T02:37:34.702Z,1007.35
2022-12-15T02:38:34.694Z,1007.39
2022-12-15T02:39:34.697Z,1007.37
2022-12-15T02:40:34.691Z,1007.41
2022-12-15T02:41:34.694Z,1007.44
2022-12-15T02:42:34.693Z,1007.48
2022-12-15T02:43:34.910Z,1007.51
2022-12-15T02:44:34.684Z,1007.51
2022-12-15T02:45:34.726Z,1007.55
2022-12-15T02:46:34.719Z,1007.61
2022-12-15T02:47:34.697Z,1007.59
2022-12-15T02:48:34.710Z,1007.63
2022-12-15T02:49:34.694Z,1007.63
2022-12-15T02:50:34.689Z,1007.68
2022-12-15T02:51:34.770Z,1007.66
2022-12-15T02:52:34.700Z,1007.73
2022-12-15T02:53:35.006Z,1007.74
2022-12-15T02:54:34.688Z,1007.71
2022-12-15T02:55:34.685Z,1007.73
2022-12-15T02:56:34.712Z,1007.73
2022-12-15T02:57:34.697Z,1007.7
2022-12-15T02:58:34.686Z,1007.68
2022-12-15T02:59:34.692Z,1007.71
2022-12-15T03:00:34.691Z,1007.73
2022-12-15T03:01:34.879Z,1007.71
2022-12-15T03:02:34.872Z,1007.7
2022-12-15T03:03:35.173Z,1007.77
2022-12-15T03:04:34.701Z,1007.81
2022-12-15T03:05:34.673Z,1007.79
2022-12-15T03:06:34.710Z,1007.83
2022-12-15T03:07:34.693Z,1007.84
2022-12-15T03:08:34.680Z,1007.87
2022-12-15T03:09:34.674Z,1007.87
2022-12-15T03:10:34.670Z,1007.83
2022-12-15T03:11:34.886Z,1007.83
2022-12-15T03:12:34.676Z,1007.89
2022-12-15T03:13:35.006Z,1007.88
2022-12-15T03:14:34.672Z,1007.91
2022-12-15T03:15:35.659Z,1007.91
2022-12-15T03:16:34.764Z,1007.95
2022-12-15T03:17:34.678Z,1007.94
2022-12-15T03:18:34.677Z,1008.02
2022-12-15T03:19:34.683Z,1008.03
2022-12-15T03:20:34.671Z,1008.06
2022-12-15T03:21:34.688Z,1008.14
2022-12-15T03:22:34.671Z,1008.13
2022-12-15T03:23:34.686Z,1008.14
2022-12-15T03:24:34.677Z,1008.15
2022-12-15T03:25:34.677Z,1008.15
2022-12-15T03:26:34.688Z,1008.18
2022-12-15T03:27:34.672Z,1008.15
2022-12-15T03:28:34.676Z,1008.17
2022-12-15T03:29:34.680Z,1008.17
2022-12-15T03:30:34.673Z,1008.2
2022-12-15T03:31:34.768Z,1008.22
2022-12-15T03:32:34.699Z,1008.27
2022-12-15T03:33:35.154Z,1008.24
2022-12-15T03:34:34.688Z,1008.24
2022-12-15T03:35:34.677Z,1008.33
2022-12-15T03:36:34.706Z,1008.29
2022-12-15T03:37:34.684Z,1008.3
2022-12-15T03:38:34.688Z,1008.32
2022-12-15T03:39:34.685Z,1008.26
2022-12-15T03:40:34.691Z,1008.27
2022-12-15T03:41:34.712Z,1008.3
2022-12-15T03:42:34.683Z,1008.3
2022-12-15T03:43:34.905Z,1008.29
2022-12-15T03:44:34.686Z,1008.27
2022-12-15T03:45:34.823Z,1008.28
2022-12-15T03:46:34.692Z,1008.3
2022-12-15T03:47:34.691Z,1008.35
2022-12-15T03:48:34.703Z,1008.32
2022-12-15T03:49:34.699Z,1008.28
2022-12-15T03:50:34.688Z,1008.3
2022-12-15T03:51:34.718Z,1008.31
2022-12-15T03:52:34.691Z,1008.31
2022-12-15T03:53:34.825Z,1008.25
2022-12-15T03:54:34.692Z,1008.24
2022-12-15T03:55:34.685Z,1008.25
2022-12-15T03:56:34.708Z,1008.24
2022-12-15T03:57:34.709Z,1008.21
2022-12-15T03:58:34.691Z,1008.25
2022-12-15T03:59:34.691Z,1008.32
2022-12-15T04:00:34.687Z,1008.31
2022-12-15T04:01:34.853Z,1008.36
2022-12-15T04:02:34.831Z,1008.41
2022-12-15T04:03:35.367Z,1008.42
2022-12-15T04:04:34.692Z,1008.49
2022-12-15T04:05:34.689Z,1008.52
2022-12-15T04:06:34.704Z,1008.54
2022-12-15T04:07:34.688Z,1008.58
2022-12-15T04:08:34.689Z,1008.58
2022-12-15T04:09:34.692Z,1008.58
2022-12-15T04:10:35.244Z,1008.65
2022-12-15T04:11:34.717Z,1008.67
2022-12-15T04:12:34.676Z,1008.6
2022-12-15T04:13:34.917Z,1008.56
2022-12-15T04:14:34.704Z,1008.58
2022-12-15T04:15:34.691Z,1008.59
2022-12-15T04:16:34.814Z,1008.59
2022-12-15T04:17:34.689Z,1008.61
2022-12-15T04:18:34.692Z,1008.62
2022-12-15T04:19:34.674Z,1008.67
2022-12-15T04:20:34.672Z,1008.66
2022-12-15T04:21:34.689Z,1008.65
2022-12-15T04:22:34.673Z,1008.71
2022-12-15T04:23:34.767Z,1008.75
2022-12-15T04:24:34.682Z,1008.77
2022-12-15T04:25:34.678Z,1008.74
2022-12-15T04:26:34.694Z,1008.75
2022-12-15T04:27:34.674Z,1008.72
2022-12-15T04:28:34.678Z,1008.74
2022-12-15T04:29:34.779Z,1008.69
2022-12-15T04:30:34.732Z,1008.76
2022-12-15T04:31:34.694Z,1008.78
2022-12-15T04:32:34.672Z,1008.76
2022-12-15T04:33:35.066Z,1008.8
2022-12-15T04:34:34.674Z,1008.8
2022-12-15T04:35:41.959Z,1008.88
2022-12-15T04:36:40.751Z,1008.91
2022-12-15T04:37:40.740Z,1008.95
2022-12-15T04:38:50.292Z,1009
2022-12-15T04:39:40.722Z,1008.98
2022-12-15T04:40:40.702Z,1009.01
2022-12-15T04:41:40.719Z,1008.98
2022-12-15T04:42:40.720Z,1008.97
2022-12-15T04:43:40.717Z,1008.96
2022-12-15T04:44:40.704Z,1008.95
2022-12-15T04:45:40.726Z,1008.97
2022-12-15T04:46:40.836Z,1008.98
2022-12-15T04:47:40.706Z,1008.99
2022-12-15T04:48:40.707Z,1008.98
2022-12-15T04:49:40.706Z,1008.97
2022-12-15T04:50:40.710Z,1008.98
2022-12-15T04:51:40.739Z,1009.01
2022-12-15T04:52:40.707Z,1009.01
2022-12-15T04:53:40.704Z,1009
2022-12-15T04:54:40.710Z,1008.97
2022-12-15T04:55:40.713Z,1009.02
2022-12-15T04:56:40.723Z,1008.96
2022-12-15T04:57:40.709Z,1009.01
2022-12-15T04:58:40.714Z,1009
2022-12-15T04:59:40.704Z,1009.01
2022-12-15T05:00:40.695Z,1009.01
2022-12-15T05:01:40.842Z,1009.04
2022-12-15T05:02:40.849Z,1009.06
2022-12-15T05:03:40.705Z,1009.1
2022-12-15T05:04:40.757Z,1009.1
2022-12-15T05:05:40.695Z,1009.07
2022-12-15T05:06:40.709Z,1009.11
2022-12-15T05:07:40.694Z,1009.14
2022-12-15T05:08:40.706Z,1009.07
2022-12-15T05:09:40.680Z,1009.07
2022-12-15T05:10:40.684Z,1009.11
2022-12-15T05:11:40.707Z,1009.12
2022-12-15T05:12:40.679Z,1009.14
2022-12-15T05:13:40.684Z,1009.14
2022-12-15T05:14:40.685Z,1009.18
2022-12-15T05:15:40.782Z,1009.14
2022-12-15T05:16:40.834Z,1009.19
2022-12-15T05:17:41.896Z,1009.23
2022-12-15T05:18:40.682Z,1009.25
2022-12-15T05:19:40.681Z,1009.3
2022-12-15T05:20:40.678Z,1009.3
2022-12-15T05:21:40.715Z,1009.33
2022-12-15T05:22:40.691Z,1009.36
2022-12-15T05:23:40.677Z,1009.34
2022-12-15T05:24:40.680Z,1009.38
2022-12-15T05:25:40.683Z,1009.37
2022-12-15T05:26:40.703Z,1009.35
2022-12-15T05:27:40.684Z,1009.31
2022-12-15T05:28:40.739Z,1009.33
2022-12-15T05:29:40.680Z,1009.33
2022-12-15T05:30:40.725Z,1009.37
2022-12-15T05:31:40.700Z,1009.36
2022-12-15T05:32:40.689Z,1009.36
2022-12-15T05:33:40.688Z,1009.36
2022-12-15T05:34:40.692Z,1009.49
2022-12-15T05:35:40.680Z,1009.51
2022-12-15T05:36:40.719Z,1009.54
2022-12-15T05:37:40.705Z,1009.57
2022-12-15T05:38:40.703Z,1009.63
2022-12-15T05:39:40.691Z,1009.64
2022-12-15T05:40:40.689Z,1009.64
2022-12-15T05:41:40.713Z,1009.7
2022-12-15T05:42:40.691Z,1009.7
2022-12-15T05:43:40.708Z,1009.74
2022-12-15T05:44:40.703Z,1009.73
2022-12-15T05:45:40.706Z,1009.78
2022-12-15T05:46:40.766Z,1009.81
2022-12-15T05:47:40.675Z,1009.81
2022-12-15T05:48:40.712Z,1009.84
2022-12-15T05:49:40.697Z,1009.84
2022-12-15T05:50:40.695Z,1009.84
2022-12-15T05:51:40.712Z,1009.83
2022-12-15T05:52:42.903Z,1009.87
2022-12-15T05:53:40.772Z,1009.86
2022-12-15T05:54:40.698Z,1009.83
2022-12-15T05:55:40.701Z,1009.85
2022-12-15T05:56:40.746Z,1009.9
2022-12-15T05:57:40.697Z,1009.89
2022-12-15T05:58:45.168Z,1009.93
2022-12-15T05:59:40.698Z,1009.97
2022-12-15T06:00:40.684Z,1009.97
2022-12-15T06:01:40.806Z,1009.93
2022-12-15T06:02:40.733Z,1009.97
2022-12-15T06:03:40.703Z,1009.98
2022-12-15T06:04:40.767Z,1010.01
2022-12-15T06:05:40.694Z,1010.05
2022-12-15T06:06:40.714Z,1010.08
2022-12-15T06:07:40.702Z,1010.1
2022-12-15T06:08:40.698Z,1010.1
2022-12-15T06:09:40.711Z,1010.14
2022-12-15T06:10:40.686Z,1010.14
2022-12-15T06:11:40.713Z,1010.18
2022-12-15T06:12:40.697Z,1010.19
2022-12-15T06:13:40.706Z,1010.18
2022-12-15T06:14:40.679Z,1010.18
2022-12-15T06:15:40.753Z,1010.23
2022-12-15T06:16:49.792Z,1010.2
2022-12-15T06:17:40.697Z,1010.29
2022-12-15T06:18:40.699Z,1010.3
2022-12-15T06:19:40.699Z,1010.33
2022-12-15T06:20:40.684Z,1010.33
2022-12-15T06:21:40.694Z,1010.3
2022-12-15T06:22:44.201Z,1010.37
2022-12-15T06:23:40.684Z,1010.36
2022-12-15T06:24:40.680Z,1010.38
2022-12-15T06:25:40.684Z,1010.39
2022-12-15T06:26:40.699Z,1010.39
2022-12-15T06:27:40.681Z,1010.4
2022-12-15T06:28:40.675Z,1010.41
2022-12-15T06:29:40.674Z,1010.44
2022-12-15T06:30:40.682Z,1010.4
2022-12-15T06:31:40.782Z,1010.38
2022-12-15T06:32:40.675Z,1010.4
2022-12-15T06:33:40.675Z,1010.5
2022-12-15T06:34:40.675Z,1010.44
2022-12-15T06:35:40.679Z,1010.5
2022-12-15T06:36:40.712Z,1010.52
2022-12-15T06:37:40.679Z,1010.51
2022-12-15T06:38:40.679Z,1010.53
2022-12-15T06:39:40.679Z,1010.58
2022-12-15T06:40:40.675Z,1010.6
2022-12-15T06:41:40.698Z,1010.62
2022-12-15T06:42:40.687Z,1010.65
2022-12-15T06:43:40.675Z,1010.62
2022-12-15T06:44:40.680Z,1010.63
2022-12-15T06:45:40.711Z,1010.67
2022-12-15T06:46:40.742Z,1010.65
2022-12-15T06:47:40.697Z,1010.66
2022-12-15T06:48:40.744Z,1010.69
2022-12-15T06:49:40.693Z,1010.69
2022-12-15T06:50:40.678Z,1010.69
2022-12-15T06:51:40.726Z,1010.75
2022-12-15T06:52:40.696Z,1010.75
2022-12-15T06:53:40.693Z,1010.79
2022-12-15T06:54:40.791Z,1010.84
2022-12-15T06:55:40.689Z,1010.84
2022-12-15T06:56:40.729Z,1010.82
2022-12-15T06:57:40.698Z,1010.8
2022-12-15T06:58:40.696Z,1010.81
2022-12-15T06:59:40.697Z,1010.82
2022-12-15T07:00:40.673Z,1010.82
2022-12-15T07:01:40.870Z,1010.87
2022-12-15T07:02:40.985Z,1010.84
2022-12-15T07:03:41.111Z,1010.84
2022-12-15T07:04:40.695Z,1010.85
2022-12-15T07:05:40.694Z,1010.84
2022-12-15T07:06:40.718Z,1010.85
2022-12-15T07:07:40.705Z,1010.89
2022-12-15T07:08:41.825Z,1010.89
2022-12-15T07:09:40.701Z,1010.9
2022-12-15T07:10:40.678Z,1010.9
2022-12-15T07:11:40.748Z,1010.94
2022-12-15T07:12:40.698Z,1010.97
2022-12-15T07:13:40.703Z,1011.01
2022-12-15T07:14:40.686Z,1011.01
2022-12-15T07:15:40.813Z,1011.04
2022-12-15T07:16:40.803Z,1011.07
2022-12-15T07:17:40.697Z,1011.06
2022-12-15T07:18:40.700Z,1011.08
2022-12-15T07:19:40.706Z,1011.07
2022-12-15T07:20:40.682Z,1011.07
2022-12-15T07:21:40.708Z,1011.11
2022-12-15T07:22:40.694Z,1011.14
2022-12-15T07:23:54.185Z,1011.13
2022-12-15T07:24:40.677Z,1011.13
2022-12-15T07:25:40.755Z,1011.15
2022-12-15T07:26:40.717Z,1011.13
2022-12-15T07:27:40.691Z,1011.13
2022-12-15T07:28:40.705Z,1011.14
2022-12-15T07:29:40.699Z,1011.15
2022-12-15T07:30:40.688Z,1011.15
2022-12-15T07:31:40.872Z,1011.22
2022-12-15T07:32:40.693Z,1011.22
2022-12-15T07:33:40.681Z,1011.22
2022-12-15T07:34:40.692Z,1011.18
2022-12-15T07:35:40.683Z,1011.14
2022-12-15T07:36:40.702Z,1011.16
2022-12-15T07:37:40.681Z,1011.21
2022-12-15T07:38:40.681Z,1011.16
2022-12-15T07:39:40.677Z,1011.24
2022-12-15T07:40:40.687Z,1011.27
2022-12-15T07:41:40.698Z,1011.29
2022-12-15T07:42:40.675Z,1011.33
2022-12-15T07:43:40.720Z,1011.38
2022-12-15T07:44:40.680Z,1011.31
2022-12-15T07:45:40.719Z,1011.27
2022-12-15T07:46:40.777Z,1011.3
2022-12-15T07:47:40.678Z,1011.25
2022-12-15T07:48:40.680Z,1011.33
2022-12-15T07:49:40.676Z,1011.35
2022-12-15T07:50:40.682Z,1011.32
2022-12-15T07:51:40.702Z,1011.36
2022-12-15T07:52:40.675Z,1011.35
2022-12-15T07:53:40.680Z,1011.38
2022-12-15T07:54:40.676Z,1011.35
2022-12-15T07:56:05.511Z,1011.33
2022-12-15T07:56:40.700Z,1011.3
2022-12-15T07:57:40.678Z,1011.3
2022-12-15T07:58:40.677Z,1011.33
2022-12-15T07:59:40.673Z,1011.31
2022-12-15T08:00:45.295Z,1011.3
2022-12-15T08:01:40.885Z,1011.28
2022-12-15T08:02:40.771Z,1011.29
2022-12-15T08:03:41.192Z,1011.26
2022-12-15T08:04:40.689Z,1011.24
2022-12-15T08:05:40.701Z,1011.22
2022-12-15T08:06:40.712Z,1011.2
2022-12-15T08:07:40.698Z,1011.17
2022-12-15T08:08:40.705Z,1011.17
2022-12-15T08:09:40.693Z,1011.17
2022-12-15T08:10:40.689Z,1011.2
2022-12-15T08:11:40.726Z,1011.2
2022-12-15T08:12:40.703Z,1011.23
2022-12-15T08:14:02.533Z,1011.28
2022-12-15T08:14:40.694Z,1011.3
2022-12-15T08:15:40.698Z,1011.3
2022-12-15T08:16:40.820Z,1011.3
2022-12-15T08:17:40.697Z,1011.33
2022-12-15T08:18:40.699Z,1011.33
2022-12-15T08:19:40.714Z,1011.32
2022-12-15T08:20:40.690Z,1011.31
2022-12-15T08:21:40.716Z,1011.35
2022-12-15T08:22:40.702Z,1011.34
2022-12-15T08:23:40.701Z,1011.34
2022-12-15T08:24:40.703Z,1011.34
2022-12-15T08:25:40.693Z,1011.31
2022-12-15T08:26:40.716Z,1011.33
2022-12-15T08:27:40.701Z,1011.32
2022-12-15T08:28:40.699Z,1011.32
2022-12-15T08:29:51.920Z,1011.39
2022-12-15T08:30:40.694Z,1011.44
2022-12-15T08:31:40.755Z,1011.44
2022-12-15T08:32:40.703Z,1011.51
2022-12-15T08:33:40.749Z,1011.52
2022-12-15T08:34:40.696Z,1011.55
2022-12-15T08:35:56.390Z,1011.54
2022-12-15T08:36:40.712Z,1011.53
2022-12-15T08:37:40.696Z,1011.58
2022-12-15T08:38:40.707Z,1011.54
2022-12-15T08:39:40.796Z,1011.61
2022-12-15T08:40:40.752Z,1011.7
2022-12-15T08:41:40.747Z,1011.7
2022-12-15T08:42:40.701Z,1011.76
2022-12-15T08:43:47.486Z,1011.67
2022-12-15T08:44:40.700Z,1011.63
2022-12-15T08:45:40.710Z,1011.64
2022-12-15T08:46:40.715Z,1011.56
2022-12-15T08:47:40.687Z,1011.6
2022-12-15T08:48:40.704Z,1011.66
2022-12-15T08:49:40.684Z,1011.64
2022-12-15T08:50:40.679Z,1011.61
2022-12-15T08:51:40.690Z,1011.67
2022-12-15T08:52:41.204Z,1011.68
2022-12-15T08:53:40.683Z,1011.7
2022-12-15T08:54:40.683Z,1011.64
2022-12-15T08:55:40.681Z,1011.66
2022-12-15T08:56:40.694Z,1011.66
2022-12-15T08:57:40.675Z,1011.66
2022-12-15T08:58:40.700Z,1011.67
2022-12-15T08:59:40.677Z,1011.63
2022-12-15T09:00:40.679Z,1011.64
2022-12-15T09:01:40.922Z,1011.69
2022-12-15T09:02:40.743Z,1011.63
2022-12-15T09:03:40.679Z,1011.64
2022-12-15T09:04:40.812Z,1011.62
2022-12-15T09:05:40.678Z,1011.61
2022-12-15T09:06:40.695Z,1011.61
2022-12-15T09:07:40.681Z,1011.62
2022-12-15T09:08:40.675Z,1011.61
2022-12-15T09:09:40.677Z,1011.61
2022-12-15T09:10:40.678Z,1011.62
2022-12-15T09:11:40.698Z,1011.64
2022-12-15T09:12:40.679Z,1011.66
2022-12-15T09:13:40.693Z,1011.68
2022-12-15T09:14:40.678Z,1011.71
2022-12-15T09:16:08.459Z,1011.64
2022-12-15T09:16:40.765Z,1011.68
2022-12-15T09:17:40.692Z,1011.62
2022-12-15T09:18:40.692Z,1011.64
2022-12-15T09:19:40.686Z,1011.62
2022-12-15T09:20:40.678Z,1011.58
2022-12-15T09:21:40.709Z,1011.53
2022-12-15T09:22:40.689Z,1011.53
2022-12-15T09:23:40.696Z,1011.49
2022-12-15T09:24:40.699Z,1011.47
2022-12-15T09:25:40.706Z,1011.48
2022-12-15T09:26:40.711Z,1011.47
2022-12-15T09:27:40.694Z,1011.41
2022-12-15T09:28:40.697Z,1011.47
2022-12-15T09:29:40.693Z,1011.47
2022-12-15T09:30:40.741Z,1011.45
2022-12-15T09:31:40.717Z,1011.45
2022-12-15T09:32:40.699Z,1011.45
2022-12-15T09:33:40.695Z,1011.48
2022-12-15T09:34:40.699Z,1011.48
2022-12-15T09:35:40.690Z,1011.48
2022-12-15T09:36:40.715Z,1011.51
2022-12-15T09:37:40.704Z,1011.48
2022-12-15T09:38:40.695Z,1011.53
2022-12-15T09:39:40.691Z,1011.61
2022-12-15T09:40:40.686Z,1011.69
2022-12-15T09:41:40.716Z,1011.69
2022-12-15T09:42:40.709Z,1011.76
2022-12-15T09:43:46.520Z,1011.71
2022-12-15T09:44:40.696Z,1011.74
2022-12-15T09:45:40.813Z,1011.76
2022-12-15T09:46:40.793Z,1011.75
2022-12-15T09:47:40.703Z,1011.82
2022-12-15T09:48:40.700Z,1011.7
2022-12-15T09:49:40.697Z,1011.7
2022-12-15T09:50:40.697Z,1011.67
2022-12-15T09:51:40.715Z,1011.63
2022-12-15T09:52:40.706Z,1011.6
2022-12-15T09:53:55.202Z,1011.63
2022-12-15T09:54:40.739Z,1011.64
2022-12-15T09:55:40.713Z,1011.69
2022-12-15T09:56:40.709Z,1011.64
2022-12-15T09:57:40.704Z,1011.59
2022-12-15T09:58:40.699Z,1011.56
2022-12-15T09:59:40.702Z,1011.46
2022-12-15T10:00:43.579Z,1011.49
2022-12-15T10:01:40.729Z,1011.56
2022-12-15T10:02:40.786Z,1011.55
2022-12-15T10:03:40.803Z,1011.57
2022-12-15T10:04:40.680Z,1011.59
2022-12-15T10:06:07.132Z,1011.59
2022-12-15T10:06:40.715Z,1011.59
2022-12-15T10:07:40.684Z,1011.55
2022-12-15T10:08:40.692Z,1011.57
2022-12-15T10:09:40.679Z,1011.57
2022-12-15T10:10:40.684Z,1011.62
2022-12-15T10:11:40.699Z,1011.66
2022-12-15T10:13:40.686Z,1011.62
2022-12-15T10:14:40.676Z,1011.66
2022-12-15T10:15:40.806Z,1011.69
2022-12-15T10:16:40.698Z,1011.63
2022-12-15T10:17:40.675Z,1011.64
2022-12-15T10:18:40.696Z,1011.6
2022-12-15T10:19:40.688Z,1011.62
2022-12-15T10:20:40.679Z,1011.62
2022-12-15T10:21:40.698Z,1011.63
2022-12-15T10:22:40.688Z,1011.67
2022-12-15T10:23:40.720Z,1011.66
2022-12-15T10:25:09.868Z,1011.61
2022-12-15T10:25:40.680Z,1011.57
2022-12-15T10:26:40.695Z,1011.57
2022-12-15T10:27:40.679Z,1011.55
2022-12-15T10:28:40.682Z,1011.62
2022-12-15T10:29:40.690Z,1011.63
2022-12-15T10:30:40.737Z,1011.69
2022-12-15T10:31:40.697Z,1011.66
2022-12-15T10:32:42.887Z,1011.68
2022-12-15T10:33:40.705Z,1011.71
2022-12-15T10:34:40.753Z,1011.72
2022-12-15T10:35:40.697Z,1011.78
2022-12-15T10:36:40.717Z,1011.82
2022-12-15T10:37:40.691Z,1011.77
2022-12-15T10:38:40.697Z,1011.78
2022-12-15T10:39:40.703Z,1011.78
2022-12-15T10:40:40.677Z,1011.74
2022-12-15T10:41:40.713Z,1011.79
2022-12-15T10:42:40.694Z,1011.71
2022-12-15T10:43:40.697Z,1011.71
2022-12-15T10:44:40.701Z,1011.8
2022-12-15T10:45:40.695Z,1011.73
2022-12-15T10:46:40.792Z,1011.73
2022-12-15T10:47:40.687Z,1011.7
2022-12-15T10:48:40.707Z,1011.7
2022-12-15T10:49:40.704Z,1011.78
2022-12-15T10:50:40.680Z,1011.78
2022-12-15T10:51:40.714Z,1011.84
2022-12-15T10:52:40.698Z,1011.99
2022-12-15T10:53:40.701Z,1012.07
2022-12-15T10:54:40.698Z,1012
2022-12-15T10:55:40.700Z,1012.01
2022-12-15T10:56:40.707Z,1012.04
2022-12-15T10:57:40.697Z,1011.99
2022-12-15T10:58:40.705Z,1011.92
2022-12-15T10:59:40.699Z,1011.91
2022-12-15T11:00:40.695Z,1011.98
2022-12-15T11:01:40.915Z,1011.98
2022-12-15T11:02:40.935Z,1012.01
2022-12-15T11:03:41.467Z,1011.95
2022-12-15T11:04:40.774Z,1012.05
2022-12-15T11:05:40.701Z,1011.94
2022-12-15T11:06:40.704Z,1011.91
2022-12-15T11:07:40.700Z,1011.91
2022-12-15T11:08:40.699Z,1011.91
2022-12-15T11:09:40.691Z,1011.91
2022-12-15T11:10:40.697Z,1011.91
2022-12-15T11:11:45.181Z,1011.91
2022-12-15T11:12:40.696Z,1011.93
2022-12-15T11:13:41.143Z,1011.87
2022-12-15T11:14:40.710Z,1011.85
2022-12-15T11:15:40.776Z,1011.81
2022-12-15T11:16:40.712Z,1011.84
2022-12-15T11:17:40.692Z,1011.81
2022-12-15T11:18:40.699Z,1011.84
2022-12-15T11:19:40.691Z,1011.79
2022-12-15T11:20:40.683Z,1011.79
2022-12-15T11:21:40.710Z,1011.84
2022-12-15T11:22:40.718Z,1011.82
2022-12-15T11:23:46.817Z,1011.82
2022-12-15T11:24:40.681Z,1011.78
2022-12-15T11:25:40.733Z,1011.82
2022-12-15T11:26:40.693Z,1011.76
2022-12-15T11:27:40.681Z,1011.8
2022-12-15T11:28:40.683Z,1011.75
2022-12-15T11:29:40.677Z,1011.75
2022-12-15T11:30:40.682Z,1011.76
2022-12-15T11:31:40.689Z,1011.7
2022-12-15T11:32:40.676Z,1011.72
2022-12-15T11:33:40.674Z,1011.75
2022-12-15T11:34:40.678Z,1011.73
2022-12-15T11:35:40.793Z,1011.73
2022-12-15T11:36:40.691Z,1011.77
2022-12-15T11:37:40.679Z,1011.75
2022-12-15T11:38:40.739Z,1011.76
2022-12-15T11:39:40.681Z,1011.76
2022-12-15T11:40:40.680Z,1011.74
2022-12-15T11:41:40.697Z,1011.77
2022-12-15T11:42:40.681Z,1011.74
2022-12-15T11:43:40.675Z,1011.74
2022-12-15T11:44:40.704Z,1011.76
2022-12-15T11:45:40.759Z,1011.74
2022-12-15T11:46:40.720Z,1011.77
2022-12-15T11:47:40.704Z,1011.81
2022-12-15T11:48:40.699Z,1011.81
2022-12-15T11:49:41.531Z,1011.71
2022-12-15T11:50:40.678Z,1011.71
2022-12-15T11:51:40.712Z,1011.66
2022-12-15T11:52:40.692Z,1011.67
2022-12-15T11:53:40.693Z,1011.66
2022-12-15T11:54:40.701Z,1011.62
2022-12-15T11:55:41.627Z,1011.58
2022-12-15T11:56:40.704Z,1011.53
2022-12-15T11:57:40.691Z,1011.53
2022-12-15T11:58:40.733Z,1011.56
2022-12-15T11:59:40.700Z,1011.54
2022-12-15T12:00:40.709Z,1011.57
2022-12-15T12:01:45.338Z,1011.6
2022-12-15T12:02:40.798Z,1011.55
2022-12-15T12:03:40.697Z,1011.58
2022-12-15T12:04:40.707Z,1011.54
2022-12-15T12:05:40.693Z,1011.52
2022-12-15T12:06:40.710Z,1011.57
2022-12-15T12:07:42.265Z,1011.57
2022-12-15T12:08:40.723Z,1011.57
2022-12-15T12:09:40.699Z,1011.57
2022-12-15T12:10:40.687Z,1011.59